<?xml version="1.0" encoding="UTF-8" standalone="no" ?>
<gpx xmlns="http://www.topografix.com/GPX/1/1" xmlns:xsi="http://www.w3.org/2001/XMLSchema-instance" xsi:schemaLocation="http://www.topografix.com/GPX/1/1 http://www.topografix.com/GPX/1/1/gpx.xsd" version="1.1" creator="VisuGPX - https://www.visugpx.com">
  <metadata>
    <name>Etape 5 du PTT du GRP</name>
    <desc><![CDATA[Départ tôt le samedi matin pour le finish]]></desc>
  </metadata>
  <trk>
    <name><![CDATA[OR-6752785--Saint-Lary-Soulan:GRP 2017 Tour du Neouvielle]]></name>
    <trkseg>
      <trkpt lat="42.81694" lon="0.32236">
        <ele>800</ele>
        <time>2017-04-01T23:50:12Z</time>
      </trkpt>
      <trkpt lat="42.8172" lon="0.32236">
        <ele>800</ele>
        <time>2017-04-01T23:52:12Z</time>
      </trkpt>
      <trkpt lat="42.81775" lon="0.32273">
        <ele>800</ele>
        <time>2017-04-01T23:54:12Z</time>
      </trkpt>
      <trkpt lat="42.81814" lon="0.32271">
        <ele>800</ele>
        <time>2017-04-01T23:56:12Z</time>
      </trkpt>
      <trkpt lat="42.81872" lon="0.32256">
        <ele>800</ele>
        <time>2017-04-01T23:58:12Z</time>
      </trkpt>
      <trkpt lat="42.81934" lon="0.32278">
        <ele>800</ele>
        <time>2017-04-02T00:00:12Z</time>
      </trkpt>
      <trkpt lat="42.8199" lon="0.32256">
        <ele>800</ele>
        <time>2017-04-02T00:02:12Z</time>
      </trkpt>
      <trkpt lat="42.82095" lon="0.32065">
        <ele>800</ele>
        <time>2017-04-02T00:04:12Z</time>
      </trkpt>
      <trkpt lat="42.82157" lon="0.31887">
        <ele>800</ele>
        <time>2017-04-02T00:06:12Z</time>
      </trkpt>
      <trkpt lat="42.82254" lon="0.31679">
        <ele>800</ele>
        <time>2017-04-02T00:08:12Z</time>
      </trkpt>
      <trkpt lat="42.82359" lon="0.3161">
        <ele>802</ele>
        <time>2017-04-02T00:10:12Z</time>
      </trkpt>
      <trkpt lat="42.8234" lon="0.31508">
        <ele>805</ele>
        <time>2017-04-02T00:12:12Z</time>
      </trkpt>
      <trkpt lat="42.82371" lon="0.31396">
        <ele>816</ele>
        <time>2017-04-02T00:14:12Z</time>
      </trkpt>
      <trkpt lat="42.82624" lon="0.31377">
        <ele>832</ele>
        <time>2017-04-02T00:16:12Z</time>
      </trkpt>
      <trkpt lat="42.82454" lon="0.31278">
        <ele>844</ele>
        <time>2017-04-02T00:18:12Z</time>
      </trkpt>
      <trkpt lat="42.82625" lon="0.31249">
        <ele>868</ele>
        <time>2017-04-02T00:20:12Z</time>
      </trkpt>
      <trkpt lat="42.82743" lon="0.31182">
        <ele>891</ele>
        <time>2017-04-02T00:22:12Z</time>
      </trkpt>
      <trkpt lat="42.82661" lon="0.31156">
        <ele>918</ele>
        <time>2017-04-02T00:24:12Z</time>
      </trkpt>
      <trkpt lat="42.82552" lon="0.31175">
        <ele>918</ele>
        <time>2017-04-02T00:26:12Z</time>
      </trkpt>
      <trkpt lat="42.82687" lon="0.311">
        <ele>950</ele>
        <time>2017-04-02T00:28:12Z</time>
      </trkpt>
      <trkpt lat="42.82735" lon="0.3098">
        <ele>975</ele>
        <time>2017-04-02T00:30:12Z</time>
      </trkpt>
      <trkpt lat="42.82672" lon="0.31057">
        <ele>979</ele>
        <time>2017-04-02T00:32:12Z</time>
      </trkpt>
      <trkpt lat="42.82609" lon="0.31078">
        <ele>990</ele>
        <time>2017-04-02T00:34:12Z</time>
      </trkpt>
      <trkpt lat="42.82682" lon="0.30984">
        <ele>1001</ele>
        <time>2017-04-02T00:36:12Z</time>
      </trkpt>
      <trkpt lat="42.82742" lon="0.30846">
        <ele>1005</ele>
        <time>2017-04-02T00:38:12Z</time>
      </trkpt>
      <trkpt lat="42.82779" lon="0.30696">
        <ele>1027</ele>
        <time>2017-04-02T00:40:12Z</time>
      </trkpt>
      <trkpt lat="42.82807" lon="0.30523">
        <ele>1053</ele>
        <time>2017-04-02T00:42:12Z</time>
      </trkpt>
      <trkpt lat="42.82713" lon="0.30667">
        <ele>1069</ele>
        <time>2017-04-02T00:44:12Z</time>
      </trkpt>
      <trkpt lat="42.82554" lon="0.30773">
        <ele>1092</ele>
        <time>2017-04-02T00:46:12Z</time>
      </trkpt>
      <trkpt lat="42.82644" lon="0.30647">
        <ele>1108</ele>
        <time>2017-04-02T00:48:12Z</time>
      </trkpt>
      <trkpt lat="42.8257" lon="0.30707">
        <ele>1113</ele>
        <time>2017-04-02T00:50:12Z</time>
      </trkpt>
      <trkpt lat="42.82639" lon="0.30555">
        <ele>1130</ele>
        <time>2017-04-02T00:52:12Z</time>
      </trkpt>
      <trkpt lat="42.82575" lon="0.30627">
        <ele>1135</ele>
        <time>2017-04-02T00:54:12Z</time>
      </trkpt>
      <trkpt lat="42.82521" lon="0.30605">
        <ele>1148</ele>
        <time>2017-04-02T00:56:12Z</time>
      </trkpt>
      <trkpt lat="42.82569" lon="0.30591">
        <ele>1146</ele>
        <time>2017-04-02T00:58:12Z</time>
      </trkpt>
      <trkpt lat="42.82406" lon="0.30418">
        <ele>1190</ele>
        <time>2017-04-02T01:00:12Z</time>
      </trkpt>
      <trkpt lat="42.82398" lon="0.3024">
        <ele>1216</ele>
        <time>2017-04-02T01:02:12Z</time>
      </trkpt>
      <trkpt lat="42.82371" lon="0.30023">
        <ele>1244</ele>
        <time>2017-04-02T01:04:12Z</time>
      </trkpt>
      <trkpt lat="42.82437" lon="0.29879">
        <ele>1255</ele>
        <time>2017-04-02T01:06:12Z</time>
      </trkpt>
      <trkpt lat="42.82443" lon="0.29686">
        <ele>1277</ele>
        <time>2017-04-02T01:08:12Z</time>
      </trkpt>
      <trkpt lat="42.82426" lon="0.29475">
        <ele>1299</ele>
        <time>2017-04-02T01:10:12Z</time>
      </trkpt>
      <trkpt lat="42.82404" lon="0.2962">
        <ele>1284</ele>
        <time>2017-04-02T01:12:12Z</time>
      </trkpt>
      <trkpt lat="42.8239" lon="0.29547">
        <ele>1293</ele>
        <time>2017-04-02T01:14:12Z</time>
      </trkpt>
      <trkpt lat="42.82349" lon="0.29463">
        <ele>1306</ele>
        <time>2017-04-02T01:16:12Z</time>
      </trkpt>
      <trkpt lat="42.82285" lon="0.29475">
        <ele>1330</ele>
        <time>2017-04-02T01:18:12Z</time>
      </trkpt>
      <trkpt lat="42.82215" lon="0.29562">
        <ele>1354</ele>
        <time>2017-04-02T01:20:12Z</time>
      </trkpt>
      <trkpt lat="42.82157" lon="0.29566">
        <ele>1381</ele>
        <time>2017-04-02T01:22:12Z</time>
      </trkpt>
      <trkpt lat="42.82056" lon="0.29441">
        <ele>1431</ele>
        <time>2017-04-02T01:24:12Z</time>
      </trkpt>
      <trkpt lat="42.81971" lon="0.29139">
        <ele>1487</ele>
        <time>2017-04-02T01:26:12Z</time>
      </trkpt>
      <trkpt lat="42.81945" lon="0.29023">
        <ele>1504</ele>
        <time>2017-04-02T01:28:12Z</time>
      </trkpt>
      <trkpt lat="42.81923" lon="0.2912">
        <ele>1507</ele>
        <time>2017-04-02T01:30:12Z</time>
      </trkpt>
      <trkpt lat="42.81918" lon="0.28975">
        <ele>1520</ele>
        <time>2017-04-02T01:32:12Z</time>
      </trkpt>
      <trkpt lat="42.81838" lon="0.29133">
        <ele>1531</ele>
        <time>2017-04-02T01:34:12Z</time>
      </trkpt>
      <trkpt lat="42.81784" lon="0.2914">
        <ele>1537</ele>
        <time>2017-04-02T01:36:12Z</time>
      </trkpt>
      <trkpt lat="42.81864" lon="0.28971">
        <ele>1542</ele>
        <time>2017-04-02T01:38:12Z</time>
      </trkpt>
      <trkpt lat="42.81873" lon="0.28857">
        <ele>1549</ele>
        <time>2017-04-02T01:40:12Z</time>
      </trkpt>
      <trkpt lat="42.81826" lon="0.28957">
        <ele>1557</ele>
        <time>2017-04-02T01:42:12Z</time>
      </trkpt>
      <trkpt lat="42.81759" lon="0.28987">
        <ele>1563</ele>
        <time>2017-04-02T01:44:12Z</time>
      </trkpt>
      <trkpt lat="42.81715" lon="0.28949">
        <ele>1580</ele>
        <time>2017-04-02T01:46:12Z</time>
      </trkpt>
      <trkpt lat="42.81799" lon="0.28907">
        <ele>1569</ele>
        <time>2017-04-02T01:48:12Z</time>
      </trkpt>
      <trkpt lat="42.81811" lon="0.28723">
        <ele>1593</ele>
        <time>2017-04-02T01:50:12Z</time>
      </trkpt>
      <trkpt lat="42.81768" lon="0.28783">
        <ele>1598</ele>
        <time>2017-04-02T01:52:12Z</time>
      </trkpt>
      <trkpt lat="42.81788" lon="0.28653">
        <ele>1613</ele>
        <time>2017-04-02T01:54:12Z</time>
      </trkpt>
      <trkpt lat="42.81851" lon="0.28602">
        <ele>1599</ele>
        <time>2017-04-02T01:56:12Z</time>
      </trkpt>
      <trkpt lat="42.81915" lon="0.28393">
        <ele>1626</ele>
        <time>2017-04-02T01:58:12Z</time>
      </trkpt>
      <trkpt lat="42.81918" lon="0.28204">
        <ele>1671</ele>
        <time>2017-04-02T02:00:12Z</time>
      </trkpt>
      <trkpt lat="42.81963" lon="0.2809">
        <ele>1689</ele>
        <time>2017-04-02T02:02:12Z</time>
      </trkpt>
      <trkpt lat="42.81894" lon="0.27822">
        <ele>1759</ele>
        <time>2017-04-02T02:04:12Z</time>
      </trkpt>
      <trkpt lat="42.81889" lon="0.27761">
        <ele>1772</ele>
        <time>2017-04-02T02:06:12Z</time>
      </trkpt>
      <trkpt lat="42.81889" lon="0.27714">
        <ele>1781</ele>
        <time>2017-04-02T02:08:12Z</time>
      </trkpt>
      <trkpt lat="42.81874" lon="0.27616">
        <ele>1807</ele>
        <time>2017-04-02T02:10:12Z</time>
      </trkpt>
      <trkpt lat="42.81886" lon="0.27535">
        <ele>1830</ele>
        <time>2017-04-02T02:12:12Z</time>
      </trkpt>
      <trkpt lat="42.8193" lon="0.27472">
        <ele>1841</ele>
        <time>2017-04-02T02:14:12Z</time>
      </trkpt>
      <trkpt lat="42.82024" lon="0.27446">
        <ele>1820</ele>
        <time>2017-04-02T02:16:12Z</time>
      </trkpt>
      <trkpt lat="42.82044" lon="0.27388">
        <ele>1815</ele>
        <time>2017-04-02T02:18:12Z</time>
      </trkpt>
      <trkpt lat="42.82059" lon="0.27297">
        <ele>1810</ele>
        <time>2017-04-02T02:20:12Z</time>
      </trkpt>
      <trkpt lat="42.82045" lon="0.27107">
        <ele>1823</ele>
        <time>2017-04-02T02:22:12Z</time>
      </trkpt>
      <trkpt lat="42.82042" lon="0.26985">
        <ele>1825</ele>
        <time>2017-04-02T02:24:12Z</time>
      </trkpt>
      <trkpt lat="42.82038" lon="0.26945">
        <ele>1826</ele>
        <time>2017-04-02T02:26:12Z</time>
      </trkpt>
      <trkpt lat="42.82028" lon="0.26888">
        <ele>1828</ele>
        <time>2017-04-02T02:28:12Z</time>
      </trkpt>
      <trkpt lat="42.81954" lon="0.2674">
        <ele>1864</ele>
        <time>2017-04-02T02:30:12Z</time>
      </trkpt>
      <trkpt lat="42.81953" lon="0.26568">
        <ele>1872</ele>
        <time>2017-04-02T02:32:12Z</time>
      </trkpt>
      <trkpt lat="42.82007" lon="0.26351">
        <ele>1865</ele>
        <time>2017-04-02T02:34:12Z</time>
      </trkpt>
      <trkpt lat="42.82083" lon="0.26297">
        <ele>1833</ele>
        <time>2017-04-02T02:36:12Z</time>
      </trkpt>
      <trkpt lat="42.82099" lon="0.26245">
        <ele>1828</ele>
        <time>2017-04-02T02:38:12Z</time>
      </trkpt>
      <trkpt lat="42.82097" lon="0.26193">
        <ele>1831</ele>
        <time>2017-04-02T02:40:12Z</time>
      </trkpt>
      <trkpt lat="42.82094" lon="0.26161">
        <ele>1833</ele>
        <time>2017-04-02T02:42:12Z</time>
      </trkpt>
      <trkpt lat="42.82085" lon="0.26121">
        <ele>1838</ele>
        <time>2017-04-02T02:44:12Z</time>
      </trkpt>
      <trkpt lat="42.82091" lon="0.26084">
        <ele>1834</ele>
        <time>2017-04-02T02:46:12Z</time>
      </trkpt>
      <trkpt lat="42.82071" lon="0.26024">
        <ele>1844</ele>
        <time>2017-04-02T02:48:12Z</time>
      </trkpt>
      <trkpt lat="42.82074" lon="0.25959">
        <ele>1842</ele>
        <time>2017-04-02T02:50:12Z</time>
      </trkpt>
      <trkpt lat="42.8206" lon="0.259">
        <ele>1852</ele>
        <time>2017-04-02T02:52:12Z</time>
      </trkpt>
      <trkpt lat="42.82113" lon="0.25764">
        <ele>1836</ele>
        <time>2017-04-02T02:54:12Z</time>
      </trkpt>
      <trkpt lat="42.82138" lon="0.25695">
        <ele>1833</ele>
        <time>2017-04-02T02:56:12Z</time>
      </trkpt>
      <trkpt lat="42.82138" lon="0.25569">
        <ele>1852</ele>
        <time>2017-04-02T02:58:12Z</time>
      </trkpt>
      <trkpt lat="42.82172" lon="0.25515">
        <ele>1847</ele>
        <time>2017-04-02T03:00:12Z</time>
      </trkpt>
      <trkpt lat="42.82203" lon="0.25464">
        <ele>1843</ele>
        <time>2017-04-02T03:02:12Z</time>
      </trkpt>
      <trkpt lat="42.82216" lon="0.25406">
        <ele>1856</ele>
        <time>2017-04-02T03:04:12Z</time>
      </trkpt>
      <trkpt lat="42.82277" lon="0.25342">
        <ele>1845</ele>
        <time>2017-04-02T03:06:12Z</time>
      </trkpt>
      <trkpt lat="42.82366" lon="0.2527">
        <ele>1826</ele>
        <time>2017-04-02T03:08:12Z</time>
      </trkpt>
      <trkpt lat="42.82499" lon="0.25155">
        <ele>1811</ele>
        <time>2017-04-02T03:10:12Z</time>
      </trkpt>
      <trkpt lat="42.82549" lon="0.24909">
        <ele>1840</ele>
        <time>2017-04-02T03:12:12Z</time>
      </trkpt>
      <trkpt lat="42.8257" lon="0.24842">
        <ele>1859</ele>
        <time>2017-04-02T03:14:12Z</time>
      </trkpt>
      <trkpt lat="42.82712" lon="0.24908">
        <ele>1868</ele>
        <time>2017-04-02T03:16:12Z</time>
      </trkpt>
      <trkpt lat="42.82835" lon="0.24932">
        <ele>1874</ele>
        <time>2017-04-02T03:18:12Z</time>
      </trkpt>
      <trkpt lat="42.8293" lon="0.24823">
        <ele>1915</ele>
        <time>2017-04-02T03:20:12Z</time>
      </trkpt>
      <trkpt lat="42.83021" lon="0.24703">
        <ele>1939</ele>
        <time>2017-04-02T03:22:12Z</time>
      </trkpt>
      <trkpt lat="42.83194" lon="0.2468">
        <ele>1945</ele>
        <time>2017-04-02T03:24:12Z</time>
      </trkpt>
      <trkpt lat="42.8328" lon="0.245">
        <ele>1984</ele>
        <time>2017-04-02T03:26:12Z</time>
      </trkpt>
      <trkpt lat="42.83318" lon="0.24392">
        <ele>2005</ele>
        <time>2017-04-02T03:28:12Z</time>
      </trkpt>
      <trkpt lat="42.83378" lon="0.2416">
        <ele>2067</ele>
        <time>2017-04-02T03:30:12Z</time>
      </trkpt>
      <trkpt lat="42.83343" lon="0.24074">
        <ele>2090</ele>
        <time>2017-04-02T03:32:12Z</time>
      </trkpt>
      <trkpt lat="42.83271" lon="0.24009">
        <ele>2122</ele>
        <time>2017-04-02T03:34:12Z</time>
      </trkpt>
      <trkpt lat="42.83381" lon="0.23899">
        <ele>2149</ele>
        <time>2017-04-02T03:36:12Z</time>
      </trkpt>
      <trkpt lat="42.83459" lon="0.2373">
        <ele>2196</ele>
        <time>2017-04-02T03:38:12Z</time>
      </trkpt>
      <trkpt lat="42.83308" lon="0.23616">
        <ele>2212</ele>
        <time>2017-04-02T03:40:12Z</time>
      </trkpt>
      <trkpt lat="42.83067" lon="0.23195">
        <ele>2177</ele>
        <time>2017-04-02T03:42:12Z</time>
      </trkpt>
      <trkpt lat="42.82919" lon="0.22854">
        <ele>2121</ele>
        <time>2017-04-02T03:44:12Z</time>
      </trkpt>
      <trkpt lat="42.8285" lon="0.22534">
        <ele>2081</ele>
        <time>2017-04-02T03:46:12Z</time>
      </trkpt>
      <trkpt lat="42.82828" lon="0.22082">
        <ele>2039</ele>
        <time>2017-04-02T03:48:12Z</time>
      </trkpt>
      <trkpt lat="42.82752" lon="0.21819">
        <ele>2028</ele>
        <time>2017-04-02T03:50:12Z</time>
      </trkpt>
      <trkpt lat="42.82781" lon="0.21552">
        <ele>2027</ele>
        <time>2017-04-02T03:52:12Z</time>
      </trkpt>
      <trkpt lat="42.82797" lon="0.21324">
        <ele>2026</ele>
        <time>2017-04-02T03:54:12Z</time>
      </trkpt>
      <trkpt lat="42.82832" lon="0.21162">
        <ele>2022</ele>
        <time>2017-04-02T03:56:12Z</time>
      </trkpt>
      <trkpt lat="42.82962" lon="0.20954">
        <ele>2002</ele>
        <time>2017-04-02T03:58:12Z</time>
      </trkpt>
      <trkpt lat="42.83101" lon="0.20831">
        <ele>1993</ele>
        <time>2017-04-02T04:00:12Z</time>
      </trkpt>
      <trkpt lat="42.83228" lon="0.2073">
        <ele>1983</ele>
        <time>2017-04-02T04:02:12Z</time>
      </trkpt>
      <trkpt lat="42.83302" lon="0.20699">
        <ele>1984</ele>
        <time>2017-04-02T04:04:12Z</time>
      </trkpt>
      <trkpt lat="42.83352" lon="0.20707">
        <ele>1998</ele>
        <time>2017-04-02T04:06:12Z</time>
      </trkpt>
      <trkpt lat="42.83476" lon="0.20613">
        <ele>1975</ele>
        <time>2017-04-02T04:08:12Z</time>
      </trkpt>
      <trkpt lat="42.835" lon="0.2055">
        <ele>1951</ele>
        <time>2017-04-02T04:10:12Z</time>
      </trkpt>
      <trkpt lat="42.83569" lon="0.20578">
        <ele>1978</ele>
        <time>2017-04-02T04:12:12Z</time>
      </trkpt>
      <trkpt lat="42.83592" lon="0.20471">
        <ele>1944</ele>
        <time>2017-04-02T04:14:12Z</time>
      </trkpt>
      <trkpt lat="42.83719" lon="0.20336">
        <ele>1925</ele>
        <time>2017-04-02T04:16:12Z</time>
      </trkpt>
      <trkpt lat="42.83864" lon="0.20218">
        <ele>1912</ele>
        <time>2017-04-02T04:18:12Z</time>
      </trkpt>
      <trkpt lat="42.83953" lon="0.20128">
        <ele>1900</ele>
        <time>2017-04-02T04:20:12Z</time>
      </trkpt>
      <trkpt lat="42.84138" lon="0.20017">
        <ele>1899</ele>
        <time>2017-04-02T04:22:12Z</time>
      </trkpt>
      <trkpt lat="42.84192" lon="0.19911">
        <ele>1883</ele>
        <time>2017-04-02T04:24:12Z</time>
      </trkpt>
      <trkpt lat="42.84196" lon="0.19814">
        <ele>1853</ele>
        <time>2017-04-02T04:26:12Z</time>
      </trkpt>
      <trkpt lat="42.84266" lon="0.19753">
        <ele>1858</ele>
        <time>2017-04-02T04:28:12Z</time>
      </trkpt>
      <trkpt lat="42.8433" lon="0.19663">
        <ele>1863</ele>
        <time>2017-04-02T04:30:12Z</time>
      </trkpt>
      <trkpt lat="42.84409" lon="0.19591">
        <ele>1873</ele>
        <time>2017-04-02T04:32:12Z</time>
      </trkpt>
      <trkpt lat="42.84482" lon="0.19567">
        <ele>1885</ele>
        <time>2017-04-02T04:34:12Z</time>
      </trkpt>
      <trkpt lat="42.84613" lon="0.19552">
        <ele>1908</ele>
        <time>2017-04-02T04:36:12Z</time>
      </trkpt>
      <trkpt lat="42.84635" lon="0.19504">
        <ele>1900</ele>
        <time>2017-04-02T04:38:12Z</time>
      </trkpt>
      <trkpt lat="42.84698" lon="0.19475">
        <ele>1905</ele>
        <time>2017-04-02T04:40:12Z</time>
      </trkpt>
      <trkpt lat="42.84749" lon="0.19463">
        <ele>1912</ele>
        <time>2017-04-02T04:42:12Z</time>
      </trkpt>
      <trkpt lat="42.8483" lon="0.19489">
        <ele>1927</ele>
        <time>2017-04-02T04:44:12Z</time>
      </trkpt>
      <trkpt lat="42.8494" lon="0.1945">
        <ele>1936</ele>
        <time>2017-04-02T04:46:12Z</time>
      </trkpt>
      <trkpt lat="42.85001" lon="0.19455">
        <ele>1944</ele>
        <time>2017-04-02T04:48:12Z</time>
      </trkpt>
      <trkpt lat="42.85042" lon="0.19448">
        <ele>1946</ele>
        <time>2017-04-02T04:50:12Z</time>
      </trkpt>
      <trkpt lat="42.85141" lon="0.19448">
        <ele>1956</ele>
        <time>2017-04-02T04:52:12Z</time>
      </trkpt>
      <trkpt lat="42.8525" lon="0.19491">
        <ele>1967</ele>
        <time>2017-04-02T04:54:12Z</time>
      </trkpt>
      <trkpt lat="42.85306" lon="0.19455">
        <ele>1970</ele>
        <time>2017-04-02T04:56:12Z</time>
      </trkpt>
      <trkpt lat="42.85377" lon="0.19446">
        <ele>1977</ele>
        <time>2017-04-02T04:58:12Z</time>
      </trkpt>
      <trkpt lat="42.85446" lon="0.19414">
        <ele>1980</ele>
        <time>2017-04-02T05:00:12Z</time>
      </trkpt>
      <trkpt lat="42.85504" lon="0.1933">
        <ele>1980</ele>
        <time>2017-04-02T05:02:12Z</time>
      </trkpt>
      <trkpt lat="42.85566" lon="0.19328">
        <ele>1987</ele>
        <time>2017-04-02T05:04:12Z</time>
      </trkpt>
      <trkpt lat="42.85625" lon="0.19299">
        <ele>1997</ele>
        <time>2017-04-02T05:06:12Z</time>
      </trkpt>
      <trkpt lat="42.85684" lon="0.19222">
        <ele>2002</ele>
        <time>2017-04-02T05:08:12Z</time>
      </trkpt>
      <trkpt lat="42.8581" lon="0.19121">
        <ele>2020</ele>
        <time>2017-04-02T05:10:12Z</time>
      </trkpt>
      <trkpt lat="42.85904" lon="0.18918">
        <ele>2059</ele>
        <time>2017-04-02T05:12:12Z</time>
      </trkpt>
      <trkpt lat="42.86007" lon="0.18775">
        <ele>2084</ele>
        <time>2017-04-02T05:14:12Z</time>
      </trkpt>
      <trkpt lat="42.86097" lon="0.18726">
        <ele>2104</ele>
        <time>2017-04-02T05:16:12Z</time>
      </trkpt>
      <trkpt lat="42.86145" lon="0.18734">
        <ele>2111</ele>
        <time>2017-04-02T05:18:12Z</time>
      </trkpt>
      <trkpt lat="42.86186" lon="0.18739">
        <ele>2117</ele>
        <time>2017-04-02T05:20:12Z</time>
      </trkpt>
      <trkpt lat="42.86252" lon="0.18732">
        <ele>2126</ele>
        <time>2017-04-02T05:22:12Z</time>
      </trkpt>
      <trkpt lat="42.86316" lon="0.18734">
        <ele>2137</ele>
        <time>2017-04-02T05:24:12Z</time>
      </trkpt>
      <trkpt lat="42.86387" lon="0.18704">
        <ele>2154</ele>
        <time>2017-04-02T05:26:12Z</time>
      </trkpt>
      <trkpt lat="42.86458" lon="0.18691">
        <ele>2172</ele>
        <time>2017-04-02T05:28:12Z</time>
      </trkpt>
      <trkpt lat="42.86572" lon="0.1873">
        <ele>2197</ele>
        <time>2017-04-02T05:30:12Z</time>
      </trkpt>
      <trkpt lat="42.86626" lon="0.18724">
        <ele>2206</ele>
        <time>2017-04-02T05:32:12Z</time>
      </trkpt>
      <trkpt lat="42.86694" lon="0.18732">
        <ele>2218</ele>
        <time>2017-04-02T05:34:12Z</time>
      </trkpt>
      <trkpt lat="42.86745" lon="0.18732">
        <ele>2229</ele>
        <time>2017-04-02T05:36:12Z</time>
      </trkpt>
      <trkpt lat="42.86802" lon="0.18736">
        <ele>2236</ele>
        <time>2017-04-02T05:38:12Z</time>
      </trkpt>
      <trkpt lat="42.8686" lon="0.18745">
        <ele>2244</ele>
        <time>2017-04-02T05:40:12Z</time>
      </trkpt>
      <trkpt lat="42.86898" lon="0.18719">
        <ele>2252</ele>
        <time>2017-04-02T05:42:12Z</time>
      </trkpt>
      <trkpt lat="42.86947" lon="0.18687">
        <ele>2267</ele>
        <time>2017-04-02T05:44:12Z</time>
      </trkpt>
      <trkpt lat="42.87" lon="0.18678">
        <ele>2281</ele>
        <time>2017-04-02T05:46:12Z</time>
      </trkpt>
      <trkpt lat="42.87055" lon="0.187">
        <ele>2295</ele>
        <time>2017-04-02T05:48:12Z</time>
      </trkpt>
      <trkpt lat="42.87112" lon="0.18721">
        <ele>2304</ele>
        <time>2017-04-02T05:50:12Z</time>
      </trkpt>
      <trkpt lat="42.87123" lon="0.18814">
        <ele>2306</ele>
        <time>2017-04-02T05:52:12Z</time>
      </trkpt>
      <trkpt lat="42.87099" lon="0.18852">
        <ele>2304</ele>
        <time>2017-04-02T05:54:12Z</time>
      </trkpt>
      <trkpt lat="42.87055" lon="0.18869">
        <ele>2298</ele>
        <time>2017-04-02T05:56:12Z</time>
      </trkpt>
      <trkpt lat="42.8704" lon="0.18902">
        <ele>2297</ele>
        <time>2017-04-02T05:58:12Z</time>
      </trkpt>
      <trkpt lat="42.8704" lon="0.18951">
        <ele>2300</ele>
        <time>2017-04-02T06:00:12Z</time>
      </trkpt>
      <trkpt lat="42.87033" lon="0.19028">
        <ele>2303</ele>
        <time>2017-04-02T06:02:12Z</time>
      </trkpt>
      <trkpt lat="42.87049" lon="0.19067">
        <ele>2306</ele>
        <time>2017-04-02T06:04:12Z</time>
      </trkpt>
      <trkpt lat="42.87021" lon="0.19155">
        <ele>2307</ele>
        <time>2017-04-02T06:06:12Z</time>
      </trkpt>
      <trkpt lat="42.87052" lon="0.19178">
        <ele>2309</ele>
        <time>2017-04-02T06:08:12Z</time>
      </trkpt>
      <trkpt lat="42.87033" lon="0.19262">
        <ele>2312</ele>
        <time>2017-04-02T06:10:12Z</time>
      </trkpt>
      <trkpt lat="42.86997" lon="0.19359">
        <ele>2315</ele>
        <time>2017-04-02T06:12:12Z</time>
      </trkpt>
      <trkpt lat="42.86967" lon="0.19479">
        <ele>2326</ele>
        <time>2017-04-02T06:14:12Z</time>
      </trkpt>
      <trkpt lat="42.86986" lon="0.19573">
        <ele>2343</ele>
        <time>2017-04-02T06:16:12Z</time>
      </trkpt>
      <trkpt lat="42.87019" lon="0.19683">
        <ele>2365</ele>
        <time>2017-04-02T06:18:12Z</time>
      </trkpt>
      <trkpt lat="42.87052" lon="0.19775">
        <ele>2383</ele>
        <time>2017-04-02T06:20:12Z</time>
      </trkpt>
      <trkpt lat="42.8708" lon="0.19852">
        <ele>2395</ele>
        <time>2017-04-02T06:22:12Z</time>
      </trkpt>
      <trkpt lat="42.87107" lon="0.19934">
        <ele>2423</ele>
        <time>2017-04-02T06:24:12Z</time>
      </trkpt>
      <trkpt lat="42.8709" lon="0.1996">
        <ele>2422</ele>
        <time>2017-04-02T06:26:12Z</time>
      </trkpt>
      <trkpt lat="42.87118" lon="0.20009">
        <ele>2454</ele>
        <time>2017-04-02T06:28:12Z</time>
      </trkpt>
      <trkpt lat="42.87106" lon="0.20041">
        <ele>2460</ele>
        <time>2017-04-02T06:30:12Z</time>
      </trkpt>
      <trkpt lat="42.87135" lon="0.20054">
        <ele>2473</ele>
        <time>2017-04-02T06:32:12Z</time>
      </trkpt>
      <trkpt lat="42.87115" lon="0.20071">
        <ele>2473</ele>
        <time>2017-04-02T06:34:12Z</time>
      </trkpt>
      <trkpt lat="42.87128" lon="0.20099">
        <ele>2479</ele>
        <time>2017-04-02T06:36:12Z</time>
      </trkpt>
      <trkpt lat="42.87109" lon="0.2012">
        <ele>2478</ele>
        <time>2017-04-02T06:38:12Z</time>
      </trkpt>
      <trkpt lat="42.87132" lon="0.20142">
        <ele>2481</ele>
        <time>2017-04-02T06:40:12Z</time>
      </trkpt>
      <trkpt lat="42.87069" lon="0.20159">
        <ele>2482</ele>
        <time>2017-04-02T06:42:12Z</time>
      </trkpt>
      <trkpt lat="42.87134" lon="0.20193">
        <ele>2478</ele>
        <time>2017-04-02T06:44:12Z</time>
      </trkpt>
      <trkpt lat="42.8709" lon="0.20198">
        <ele>2478</ele>
        <time>2017-04-02T06:46:12Z</time>
      </trkpt>
      <trkpt lat="42.87164" lon="0.20258">
        <ele>2465</ele>
        <time>2017-04-02T06:48:12Z</time>
      </trkpt>
      <trkpt lat="42.87121" lon="0.20361">
        <ele>2433</ele>
        <time>2017-04-02T06:50:12Z</time>
      </trkpt>
      <trkpt lat="42.87104" lon="0.20444">
        <ele>2416</ele>
        <time>2017-04-02T06:52:12Z</time>
      </trkpt>
      <trkpt lat="42.87115" lon="0.20505">
        <ele>2412</ele>
        <time>2017-04-02T06:54:12Z</time>
      </trkpt>
      <trkpt lat="42.87052" lon="0.20616">
        <ele>2412</ele>
        <time>2017-04-02T06:56:12Z</time>
      </trkpt>
      <trkpt lat="42.87011" lon="0.20612">
        <ele>2414</ele>
        <time>2017-04-02T06:58:12Z</time>
      </trkpt>
      <trkpt lat="42.86948" lon="0.20704">
        <ele>2419</ele>
        <time>2017-04-02T07:00:12Z</time>
      </trkpt>
      <trkpt lat="42.86892" lon="0.20661">
        <ele>2428</ele>
        <time>2017-04-02T07:02:12Z</time>
      </trkpt>
      <trkpt lat="42.86871" lon="0.20717">
        <ele>2438</ele>
        <time>2017-04-02T07:04:12Z</time>
      </trkpt>
      <trkpt lat="42.86802" lon="0.20713">
        <ele>2467</ele>
        <time>2017-04-02T07:06:12Z</time>
      </trkpt>
      <trkpt lat="42.86727" lon="0.20691">
        <ele>2491</ele>
        <time>2017-04-02T07:08:12Z</time>
      </trkpt>
      <trkpt lat="42.86719" lon="0.20635">
        <ele>2494</ele>
        <time>2017-04-02T07:10:12Z</time>
      </trkpt>
      <trkpt lat="42.86732" lon="0.20697">
        <ele>2491</ele>
        <time>2017-04-02T07:12:12Z</time>
      </trkpt>
      <trkpt lat="42.86724" lon="0.20625">
        <ele>2494</ele>
        <time>2017-04-02T07:14:12Z</time>
      </trkpt>
      <trkpt lat="42.86688" lon="0.2064">
        <ele>2497</ele>
        <time>2017-04-02T07:16:12Z</time>
      </trkpt>
      <trkpt lat="42.86688" lon="0.20658">
        <ele>2494</ele>
        <time>2017-04-02T07:18:12Z</time>
      </trkpt>
      <trkpt lat="42.86628" lon="0.20701">
        <ele>2488</ele>
        <time>2017-04-02T07:20:12Z</time>
      </trkpt>
      <trkpt lat="42.86589" lon="0.20672">
        <ele>2473</ele>
        <time>2017-04-02T07:22:12Z</time>
      </trkpt>
      <trkpt lat="42.86569" lon="0.20659">
        <ele>2463</ele>
        <time>2017-04-02T07:24:12Z</time>
      </trkpt>
      <trkpt lat="42.86517" lon="0.2066">
        <ele>2438</ele>
        <time>2017-04-02T07:26:12Z</time>
      </trkpt>
      <trkpt lat="42.86485" lon="0.20698">
        <ele>2429</ele>
        <time>2017-04-02T07:28:12Z</time>
      </trkpt>
      <trkpt lat="42.86375" lon="0.20699">
        <ele>2389</ele>
        <time>2017-04-02T07:30:12Z</time>
      </trkpt>
      <trkpt lat="42.86285" lon="0.20721">
        <ele>2366</ele>
        <time>2017-04-02T07:32:12Z</time>
      </trkpt>
      <trkpt lat="42.86134" lon="0.20665">
        <ele>2334</ele>
        <time>2017-04-02T07:34:12Z</time>
      </trkpt>
      <trkpt lat="42.86103" lon="0.20708">
        <ele>2328</ele>
        <time>2017-04-02T07:36:12Z</time>
      </trkpt>
      <trkpt lat="42.85999" lon="0.20677">
        <ele>2308</ele>
        <time>2017-04-02T07:38:12Z</time>
      </trkpt>
      <trkpt lat="42.85913" lon="0.20751">
        <ele>2288</ele>
        <time>2017-04-02T07:40:12Z</time>
      </trkpt>
      <trkpt lat="42.85804" lon="0.20741">
        <ele>2278</ele>
        <time>2017-04-02T07:42:12Z</time>
      </trkpt>
      <trkpt lat="42.85672" lon="0.20719">
        <ele>2274</ele>
        <time>2017-04-02T07:44:12Z</time>
      </trkpt>
      <trkpt lat="42.85597" lon="0.20757">
        <ele>2260</ele>
        <time>2017-04-02T07:46:12Z</time>
      </trkpt>
      <trkpt lat="42.85596" lon="0.20849">
        <ele>2252</ele>
        <time>2017-04-02T07:48:12Z</time>
      </trkpt>
      <trkpt lat="42.85562" lon="0.20942">
        <ele>2249</ele>
        <time>2017-04-02T07:50:12Z</time>
      </trkpt>
      <trkpt lat="42.85482" lon="0.20994">
        <ele>2248</ele>
        <time>2017-04-02T07:52:12Z</time>
      </trkpt>
      <trkpt lat="42.85356" lon="0.20974">
        <ele>2234</ele>
        <time>2017-04-02T07:54:12Z</time>
      </trkpt>
      <trkpt lat="42.853" lon="0.21086">
        <ele>2237</ele>
        <time>2017-04-02T07:56:12Z</time>
      </trkpt>
      <trkpt lat="42.85242" lon="0.21125">
        <ele>2231</ele>
        <time>2017-04-02T07:58:12Z</time>
      </trkpt>
      <trkpt lat="42.85122" lon="0.21197">
        <ele>2226</ele>
        <time>2017-04-02T08:00:12Z</time>
      </trkpt>
      <trkpt lat="42.85069" lon="0.21199">
        <ele>2222</ele>
        <time>2017-04-02T08:02:12Z</time>
      </trkpt>
      <trkpt lat="42.84984" lon="0.21257">
        <ele>2218</ele>
        <time>2017-04-02T08:04:12Z</time>
      </trkpt>
      <trkpt lat="42.84893" lon="0.21272">
        <ele>2203</ele>
        <time>2017-04-02T08:06:12Z</time>
      </trkpt>
      <trkpt lat="42.8482" lon="0.21345">
        <ele>2195</ele>
        <time>2017-04-02T08:08:12Z</time>
      </trkpt>
      <trkpt lat="42.84758" lon="0.21277">
        <ele>2170</ele>
        <time>2017-04-02T08:10:12Z</time>
      </trkpt>
      <trkpt lat="42.84663" lon="0.2125">
        <ele>2155</ele>
        <time>2017-04-02T08:12:12Z</time>
      </trkpt>
      <trkpt lat="42.84635" lon="0.2119">
        <ele>2153</ele>
        <time>2017-04-02T08:14:12Z</time>
      </trkpt>
      <trkpt lat="42.8446" lon="0.21007">
        <ele>2149</ele>
        <time>2017-04-02T08:16:12Z</time>
      </trkpt>
      <trkpt lat="42.84389" lon="0.21028">
        <ele>2166</ele>
        <time>2017-04-02T08:18:12Z</time>
      </trkpt>
      <trkpt lat="42.8422" lon="0.20906">
        <ele>2129</ele>
        <time>2017-04-02T08:20:12Z</time>
      </trkpt>
      <trkpt lat="42.84198" lon="0.20907">
        <ele>2132</ele>
        <time>2017-04-02T08:22:12Z</time>
      </trkpt>
      <trkpt lat="42.84075" lon="0.20832">
        <ele>2134</ele>
        <time>2017-04-02T08:24:12Z</time>
      </trkpt>
      <trkpt lat="42.83993" lon="0.2078">
        <ele>2130</ele>
        <time>2017-04-02T08:26:12Z</time>
      </trkpt>
      <trkpt lat="42.83873" lon="0.20834">
        <ele>2145</ele>
        <time>2017-04-02T08:28:12Z</time>
      </trkpt>
      <trkpt lat="42.8381" lon="0.20824">
        <ele>2137</ele>
        <time>2017-04-02T08:30:12Z</time>
      </trkpt>
      <trkpt lat="42.83725" lon="0.20845">
        <ele>2124</ele>
        <time>2017-04-02T08:32:12Z</time>
      </trkpt>
      <trkpt lat="42.83564" lon="0.20863">
        <ele>2105</ele>
        <time>2017-04-02T08:34:12Z</time>
      </trkpt>
      <trkpt lat="42.83363" lon="0.20962">
        <ele>2120</ele>
        <time>2017-04-02T08:36:12Z</time>
      </trkpt>
      <trkpt lat="42.83234" lon="0.20997">
        <ele>2109</ele>
        <time>2017-04-02T08:38:12Z</time>
      </trkpt>
      <trkpt lat="42.83159" lon="0.21086">
        <ele>2126</ele>
        <time>2017-04-02T08:40:12Z</time>
      </trkpt>
      <trkpt lat="42.83031" lon="0.21281">
        <ele>2104</ele>
        <time>2017-04-02T08:42:12Z</time>
      </trkpt>
      <trkpt lat="42.83024" lon="0.21393">
        <ele>2109</ele>
        <time>2017-04-02T08:44:12Z</time>
      </trkpt>
      <trkpt lat="42.82978" lon="0.21377">
        <ele>2094</ele>
        <time>2017-04-02T08:46:12Z</time>
      </trkpt>
      <trkpt lat="42.82932" lon="0.21429">
        <ele>2079</ele>
        <time>2017-04-02T08:48:12Z</time>
      </trkpt>
      <trkpt lat="42.82919" lon="0.21603">
        <ele>2071</ele>
        <time>2017-04-02T08:50:12Z</time>
      </trkpt>
      <trkpt lat="42.82863" lon="0.21893">
        <ele>2044</ele>
        <time>2017-04-02T08:52:12Z</time>
      </trkpt>
      <trkpt lat="42.82835" lon="0.2208">
        <ele>2039</ele>
        <time>2017-04-02T08:54:12Z</time>
      </trkpt>
      <trkpt lat="42.82839" lon="0.2254">
        <ele>2081</ele>
        <time>2017-04-02T08:56:12Z</time>
      </trkpt>
      <trkpt lat="42.82912" lon="0.22859">
        <ele>2121</ele>
        <time>2017-04-02T08:58:12Z</time>
      </trkpt>
      <trkpt lat="42.82983" lon="0.23051">
        <ele>2150</ele>
        <time>2017-04-02T09:00:12Z</time>
      </trkpt>
      <trkpt lat="42.83062" lon="0.23221">
        <ele>2178</ele>
        <time>2017-04-02T09:02:12Z</time>
      </trkpt>
      <trkpt lat="42.83151" lon="0.23385">
        <ele>2202</ele>
        <time>2017-04-02T09:04:12Z</time>
      </trkpt>
      <trkpt lat="42.83262" lon="0.23573">
        <ele>2212</ele>
        <time>2017-04-02T09:06:12Z</time>
      </trkpt>
      <trkpt lat="42.83314" lon="0.23646">
        <ele>2209</ele>
        <time>2017-04-02T09:08:12Z</time>
      </trkpt>
      <trkpt lat="42.83371" lon="0.23676">
        <ele>2206</ele>
        <time>2017-04-02T09:10:12Z</time>
      </trkpt>
      <trkpt lat="42.83421" lon="0.23693">
        <ele>2203</ele>
        <time>2017-04-02T09:12:12Z</time>
      </trkpt>
      <trkpt lat="42.83483" lon="0.23712">
        <ele>2201</ele>
        <time>2017-04-02T09:14:12Z</time>
      </trkpt>
      <trkpt lat="42.83536" lon="0.23759">
        <ele>2194</ele>
        <time>2017-04-02T09:16:12Z</time>
      </trkpt>
      <trkpt lat="42.83576" lon="0.23824">
        <ele>2186</ele>
        <time>2017-04-02T09:18:12Z</time>
      </trkpt>
      <trkpt lat="42.83566" lon="0.23912">
        <ele>2169</ele>
        <time>2017-04-02T09:20:12Z</time>
      </trkpt>
      <trkpt lat="42.83576" lon="0.24">
        <ele>2160</ele>
        <time>2017-04-02T09:22:12Z</time>
      </trkpt>
      <trkpt lat="42.83577" lon="0.24085">
        <ele>2150</ele>
        <time>2017-04-02T09:24:12Z</time>
      </trkpt>
      <trkpt lat="42.83574" lon="0.24163">
        <ele>2138</ele>
        <time>2017-04-02T09:26:12Z</time>
      </trkpt>
      <trkpt lat="42.83563" lon="0.24244">
        <ele>2122</ele>
        <time>2017-04-02T09:28:12Z</time>
      </trkpt>
      <trkpt lat="42.83536" lon="0.24328">
        <ele>2103</ele>
        <time>2017-04-02T09:30:12Z</time>
      </trkpt>
      <trkpt lat="42.83508" lon="0.24407">
        <ele>2087</ele>
        <time>2017-04-02T09:32:12Z</time>
      </trkpt>
      <trkpt lat="42.83486" lon="0.2447">
        <ele>2075</ele>
        <time>2017-04-02T09:34:12Z</time>
      </trkpt>
      <trkpt lat="42.83476" lon="0.24543">
        <ele>2067</ele>
        <time>2017-04-02T09:36:12Z</time>
      </trkpt>
      <trkpt lat="42.83476" lon="0.24624">
        <ele>2060</ele>
        <time>2017-04-02T09:38:12Z</time>
      </trkpt>
      <trkpt lat="42.83469" lon="0.24718">
        <ele>2047</ele>
        <time>2017-04-02T09:40:12Z</time>
      </trkpt>
      <trkpt lat="42.83495" lon="0.2474">
        <ele>2056</ele>
        <time>2017-04-02T09:42:12Z</time>
      </trkpt>
      <trkpt lat="42.83492" lon="0.24813">
        <ele>2049</ele>
        <time>2017-04-02T09:44:12Z</time>
      </trkpt>
      <trkpt lat="42.83483" lon="0.24888">
        <ele>2045</ele>
        <time>2017-04-02T09:46:12Z</time>
      </trkpt>
      <trkpt lat="42.83469" lon="0.24963">
        <ele>2045</ele>
        <time>2017-04-02T09:48:12Z</time>
      </trkpt>
      <trkpt lat="42.83447" lon="0.25032">
        <ele>2041</ele>
        <time>2017-04-02T09:50:12Z</time>
      </trkpt>
      <trkpt lat="42.8341" lon="0.25113">
        <ele>2031</ele>
        <time>2017-04-02T09:52:12Z</time>
      </trkpt>
      <trkpt lat="42.83355" lon="0.25248">
        <ele>2019</ele>
        <time>2017-04-02T09:54:12Z</time>
      </trkpt>
      <trkpt lat="42.83343" lon="0.25321">
        <ele>2017</ele>
        <time>2017-04-02T09:56:12Z</time>
      </trkpt>
      <trkpt lat="42.83341" lon="0.25429">
        <ele>2022</ele>
        <time>2017-04-02T09:58:12Z</time>
      </trkpt>
      <trkpt lat="42.83325" lon="0.25497">
        <ele>2020</ele>
        <time>2017-04-02T10:00:12Z</time>
      </trkpt>
      <trkpt lat="42.83313" lon="0.2559">
        <ele>2012</ele>
        <time>2017-04-02T10:02:12Z</time>
      </trkpt>
      <trkpt lat="42.83303" lon="0.25682">
        <ele>1999</ele>
        <time>2017-04-02T10:04:12Z</time>
      </trkpt>
      <trkpt lat="42.83329" lon="0.25727">
        <ele>2004</ele>
        <time>2017-04-02T10:06:12Z</time>
      </trkpt>
      <trkpt lat="42.83357" lon="0.25796">
        <ele>2004</ele>
        <time>2017-04-02T10:08:12Z</time>
      </trkpt>
      <trkpt lat="42.83366" lon="0.25862">
        <ele>1998</ele>
        <time>2017-04-02T10:10:12Z</time>
      </trkpt>
      <trkpt lat="42.83379" lon="0.25933">
        <ele>1995</ele>
        <time>2017-04-02T10:12:12Z</time>
      </trkpt>
      <trkpt lat="42.83395" lon="0.26015">
        <ele>1994</ele>
        <time>2017-04-02T10:14:12Z</time>
      </trkpt>
      <trkpt lat="42.83414" lon="0.26092">
        <ele>1994</ele>
        <time>2017-04-02T10:16:12Z</time>
      </trkpt>
      <trkpt lat="42.83426" lon="0.26178">
        <ele>1991</ele>
        <time>2017-04-02T10:18:12Z</time>
      </trkpt>
      <trkpt lat="42.83437" lon="0.2627">
        <ele>1987</ele>
        <time>2017-04-02T10:20:12Z</time>
      </trkpt>
      <trkpt lat="42.83442" lon="0.26354">
        <ele>1984</ele>
        <time>2017-04-02T10:22:12Z</time>
      </trkpt>
      <trkpt lat="42.83451" lon="0.26446">
        <ele>1981</ele>
        <time>2017-04-02T10:24:12Z</time>
      </trkpt>
      <trkpt lat="42.83456" lon="0.26529">
        <ele>1979</ele>
        <time>2017-04-02T10:26:12Z</time>
      </trkpt>
      <trkpt lat="42.83459" lon="0.26605">
        <ele>1976</ele>
        <time>2017-04-02T10:28:12Z</time>
      </trkpt>
      <trkpt lat="42.83475" lon="0.2668">
        <ele>1976</ele>
        <time>2017-04-02T10:30:12Z</time>
      </trkpt>
      <trkpt lat="42.83459" lon="0.26766">
        <ele>1964</ele>
        <time>2017-04-02T10:32:12Z</time>
      </trkpt>
      <trkpt lat="42.83464" lon="0.26847">
        <ele>1958</ele>
        <time>2017-04-02T10:34:12Z</time>
      </trkpt>
      <trkpt lat="42.8347" lon="0.26924">
        <ele>1954</ele>
        <time>2017-04-02T10:36:12Z</time>
      </trkpt>
      <trkpt lat="42.8344" lon="0.27085">
        <ele>1929</ele>
        <time>2017-04-02T10:38:12Z</time>
      </trkpt>
      <trkpt lat="42.83454" lon="0.27163">
        <ele>1935</ele>
        <time>2017-04-02T10:40:12Z</time>
      </trkpt>
      <trkpt lat="42.83458" lon="0.27248">
        <ele>1935</ele>
        <time>2017-04-02T10:42:12Z</time>
      </trkpt>
      <trkpt lat="42.83436" lon="0.27285">
        <ele>1921</ele>
        <time>2017-04-02T10:44:12Z</time>
      </trkpt>
      <trkpt lat="42.83409" lon="0.27356">
        <ele>1903</ele>
        <time>2017-04-02T10:46:12Z</time>
      </trkpt>
      <trkpt lat="42.83425" lon="0.27437">
        <ele>1906</ele>
        <time>2017-04-02T10:48:12Z</time>
      </trkpt>
      <trkpt lat="42.83437" lon="0.27517">
        <ele>1901</ele>
        <time>2017-04-02T10:50:12Z</time>
      </trkpt>
      <trkpt lat="42.83467" lon="0.27594">
        <ele>1906</ele>
        <time>2017-04-02T10:52:12Z</time>
      </trkpt>
      <trkpt lat="42.83481" lon="0.27688">
        <ele>1907</ele>
        <time>2017-04-02T10:54:12Z</time>
      </trkpt>
      <trkpt lat="42.83492" lon="0.27785">
        <ele>1909</ele>
        <time>2017-04-02T10:56:12Z</time>
      </trkpt>
      <trkpt lat="42.8351" lon="0.27875">
        <ele>1912</ele>
        <time>2017-04-02T10:58:12Z</time>
      </trkpt>
      <trkpt lat="42.83522" lon="0.27971">
        <ele>1902</ele>
        <time>2017-04-02T11:00:12Z</time>
      </trkpt>
      <trkpt lat="42.83538" lon="0.28051">
        <ele>1889</ele>
        <time>2017-04-02T11:02:12Z</time>
      </trkpt>
      <trkpt lat="42.83552" lon="0.28135">
        <ele>1875</ele>
        <time>2017-04-02T11:04:12Z</time>
      </trkpt>
      <trkpt lat="42.83583" lon="0.28201">
        <ele>1874</ele>
        <time>2017-04-02T11:06:12Z</time>
      </trkpt>
      <trkpt lat="42.83621" lon="0.28268">
        <ele>1861</ele>
        <time>2017-04-02T11:08:12Z</time>
      </trkpt>
      <trkpt lat="42.83653" lon="0.28328">
        <ele>1852</ele>
        <time>2017-04-02T11:10:12Z</time>
      </trkpt>
      <trkpt lat="42.83683" lon="0.28388">
        <ele>1837</ele>
        <time>2017-04-02T11:12:12Z</time>
      </trkpt>
      <trkpt lat="42.83709" lon="0.28452">
        <ele>1821</ele>
        <time>2017-04-02T11:14:12Z</time>
      </trkpt>
      <trkpt lat="42.83725" lon="0.2854">
        <ele>1806</ele>
        <time>2017-04-02T11:16:12Z</time>
      </trkpt>
      <trkpt lat="42.83753" lon="0.28611">
        <ele>1793</ele>
        <time>2017-04-02T11:18:12Z</time>
      </trkpt>
      <trkpt lat="42.83785" lon="0.28673">
        <ele>1777</ele>
        <time>2017-04-02T11:20:12Z</time>
      </trkpt>
      <trkpt lat="42.83797" lon="0.28755">
        <ele>1761</ele>
        <time>2017-04-02T11:22:12Z</time>
      </trkpt>
      <trkpt lat="42.83807" lon="0.28838">
        <ele>1742</ele>
        <time>2017-04-02T11:24:12Z</time>
      </trkpt>
      <trkpt lat="42.83812" lon="0.28918">
        <ele>1722</ele>
        <time>2017-04-02T11:26:12Z</time>
      </trkpt>
      <trkpt lat="42.83799" lon="0.28989">
        <ele>1704</ele>
        <time>2017-04-02T11:28:12Z</time>
      </trkpt>
      <trkpt lat="42.83779" lon="0.2907">
        <ele>1687</ele>
        <time>2017-04-02T11:30:12Z</time>
      </trkpt>
      <trkpt lat="42.83785" lon="0.29173">
        <ele>1671</ele>
        <time>2017-04-02T11:32:12Z</time>
      </trkpt>
      <trkpt lat="42.83796" lon="0.29255">
        <ele>1662</ele>
        <time>2017-04-02T11:34:12Z</time>
      </trkpt>
      <trkpt lat="42.83823" lon="0.29323">
        <ele>1657</ele>
        <time>2017-04-02T11:36:12Z</time>
      </trkpt>
      <trkpt lat="42.83837" lon="0.29418">
        <ele>1647</ele>
        <time>2017-04-02T11:38:12Z</time>
      </trkpt>
      <trkpt lat="42.83843" lon="0.29523">
        <ele>1635</ele>
        <time>2017-04-02T11:40:12Z</time>
      </trkpt>
      <trkpt lat="42.83868" lon="0.29607">
        <ele>1622</ele>
        <time>2017-04-02T11:42:12Z</time>
      </trkpt>
      <trkpt lat="42.83879" lon="0.29686">
        <ele>1616</ele>
        <time>2017-04-02T11:44:12Z</time>
      </trkpt>
      <trkpt lat="42.83851" lon="0.29772">
        <ele>1615</ele>
        <time>2017-04-02T11:46:12Z</time>
      </trkpt>
      <trkpt lat="42.83834" lon="0.29832">
        <ele>1614</ele>
        <time>2017-04-02T11:48:12Z</time>
      </trkpt>
      <trkpt lat="42.83851" lon="0.29916">
        <ele>1611</ele>
        <time>2017-04-02T11:50:12Z</time>
      </trkpt>
      <trkpt lat="42.83813" lon="0.29905">
        <ele>1606</ele>
        <time>2017-04-02T11:52:12Z</time>
      </trkpt>
      <trkpt lat="42.83769" lon="0.29914">
        <ele>1591</ele>
        <time>2017-04-02T11:54:12Z</time>
      </trkpt>
      <trkpt lat="42.83753" lon="0.29998">
        <ele>1577</ele>
        <time>2017-04-02T11:56:12Z</time>
      </trkpt>
      <trkpt lat="42.8374" lon="0.30086">
        <ele>1569</ele>
        <time>2017-04-02T11:58:12Z</time>
      </trkpt>
      <trkpt lat="42.83703" lon="0.30068">
        <ele>1550</ele>
        <time>2017-04-02T12:00:12Z</time>
      </trkpt>
      <trkpt lat="42.83679" lon="0.30031">
        <ele>1538</ele>
        <time>2017-04-02T12:02:12Z</time>
      </trkpt>
      <trkpt lat="42.83651" lon="0.30069">
        <ele>1522</ele>
        <time>2017-04-02T12:04:12Z</time>
      </trkpt>
      <trkpt lat="42.83623" lon="0.29995">
        <ele>1511</ele>
        <time>2017-04-02T12:06:12Z</time>
      </trkpt>
      <trkpt lat="42.83585" lon="0.2995">
        <ele>1496</ele>
        <time>2017-04-02T12:08:12Z</time>
      </trkpt>
      <trkpt lat="42.83565" lon="0.2988">
        <ele>1494</ele>
        <time>2017-04-02T12:10:12Z</time>
      </trkpt>
      <trkpt lat="42.83552" lon="0.29801">
        <ele>1498</ele>
        <time>2017-04-02T12:12:12Z</time>
      </trkpt>
      <trkpt lat="42.83488" lon="0.29757">
        <ele>1480</ele>
        <time>2017-04-02T12:14:12Z</time>
      </trkpt>
      <trkpt lat="42.83453" lon="0.29775">
        <ele>1465</ele>
        <time>2017-04-02T12:16:12Z</time>
      </trkpt>
      <trkpt lat="42.83445" lon="0.29795">
        <ele>1459</ele>
        <time>2017-04-02T12:18:12Z</time>
      </trkpt>
      <trkpt lat="42.83406" lon="0.29767">
        <ele>1447</ele>
        <time>2017-04-02T12:20:12Z</time>
      </trkpt>
      <trkpt lat="42.83358" lon="0.29762">
        <ele>1425</ele>
        <time>2017-04-02T12:22:12Z</time>
      </trkpt>
      <trkpt lat="42.83322" lon="0.29735">
        <ele>1410</ele>
        <time>2017-04-02T12:24:12Z</time>
      </trkpt>
      <trkpt lat="42.83279" lon="0.29688">
        <ele>1395</ele>
        <time>2017-04-02T12:26:12Z</time>
      </trkpt>
      <trkpt lat="42.83262" lon="0.29614">
        <ele>1391</ele>
        <time>2017-04-02T12:28:12Z</time>
      </trkpt>
      <trkpt lat="42.83241" lon="0.2954">
        <ele>1386</ele>
        <time>2017-04-02T12:30:12Z</time>
      </trkpt>
      <trkpt lat="42.8323" lon="0.29437">
        <ele>1393</ele>
        <time>2017-04-02T12:32:12Z</time>
      </trkpt>
      <trkpt lat="42.83185" lon="0.29425">
        <ele>1381</ele>
        <time>2017-04-02T12:34:12Z</time>
      </trkpt>
      <trkpt lat="42.83115" lon="0.29424">
        <ele>1356</ele>
        <time>2017-04-02T12:36:12Z</time>
      </trkpt>
      <trkpt lat="42.83069" lon="0.29417">
        <ele>1341</ele>
        <time>2017-04-02T12:38:12Z</time>
      </trkpt>
      <trkpt lat="42.83045" lon="0.29426">
        <ele>1326</ele>
        <time>2017-04-02T12:40:12Z</time>
      </trkpt>
      <trkpt lat="42.8307" lon="0.29461">
        <ele>1321</ele>
        <time>2017-04-02T12:42:12Z</time>
      </trkpt>
      <trkpt lat="42.83095" lon="0.29499">
        <ele>1313</ele>
        <time>2017-04-02T12:44:12Z</time>
      </trkpt>
      <trkpt lat="42.83089" lon="0.29544">
        <ele>1302</ele>
        <time>2017-04-02T12:46:12Z</time>
      </trkpt>
      <trkpt lat="42.83095" lon="0.29617">
        <ele>1296</ele>
        <time>2017-04-02T12:48:12Z</time>
      </trkpt>
      <trkpt lat="42.83097" lon="0.29668">
        <ele>1292</ele>
        <time>2017-04-02T12:50:12Z</time>
      </trkpt>
      <trkpt lat="42.83084" lon="0.29698">
        <ele>1281</ele>
        <time>2017-04-02T12:52:12Z</time>
      </trkpt>
      <trkpt lat="42.83078" lon="0.29785">
        <ele>1268</ele>
        <time>2017-04-02T12:54:12Z</time>
      </trkpt>
      <trkpt lat="42.83079" lon="0.29881">
        <ele>1256</ele>
        <time>2017-04-02T12:56:12Z</time>
      </trkpt>
      <trkpt lat="42.83086" lon="0.29967">
        <ele>1250</ele>
        <time>2017-04-02T12:58:12Z</time>
      </trkpt>
      <trkpt lat="42.83095" lon="0.3003">
        <ele>1249</ele>
        <time>2017-04-02T13:00:12Z</time>
      </trkpt>
      <trkpt lat="42.83102" lon="0.30101">
        <ele>1245</ele>
        <time>2017-04-02T13:02:12Z</time>
      </trkpt>
      <trkpt lat="42.83122" lon="0.30162">
        <ele>1251</ele>
        <time>2017-04-02T13:04:12Z</time>
      </trkpt>
      <trkpt lat="42.83102" lon="0.30129">
        <ele>1241</ele>
        <time>2017-04-02T13:06:12Z</time>
      </trkpt>
      <trkpt lat="42.83073" lon="0.3009">
        <ele>1229</ele>
        <time>2017-04-02T13:08:12Z</time>
      </trkpt>
      <trkpt lat="42.83055" lon="0.30033">
        <ele>1227</ele>
        <time>2017-04-02T13:10:12Z</time>
      </trkpt>
      <trkpt lat="42.83034" lon="0.29975">
        <ele>1224</ele>
        <time>2017-04-02T13:12:12Z</time>
      </trkpt>
      <trkpt lat="42.8301" lon="0.29918">
        <ele>1220</ele>
        <time>2017-04-02T13:14:12Z</time>
      </trkpt>
      <trkpt lat="42.82992" lon="0.29848">
        <ele>1222</ele>
        <time>2017-04-02T13:16:12Z</time>
      </trkpt>
      <trkpt lat="42.82982" lon="0.29784">
        <ele>1225</ele>
        <time>2017-04-02T13:18:12Z</time>
      </trkpt>
      <trkpt lat="42.82975" lon="0.29864">
        <ele>1209</ele>
        <time>2017-04-02T13:20:12Z</time>
      </trkpt>
      <trkpt lat="42.82971" lon="0.29921">
        <ele>1198</ele>
        <time>2017-04-02T13:22:12Z</time>
      </trkpt>
      <trkpt lat="42.82985" lon="0.29976">
        <ele>1199</ele>
        <time>2017-04-02T13:24:12Z</time>
      </trkpt>
      <trkpt lat="42.82995" lon="0.3012">
        <ele>1185</ele>
        <time>2017-04-02T13:26:12Z</time>
      </trkpt>
      <trkpt lat="42.82996" lon="0.30195">
        <ele>1174</ele>
        <time>2017-04-02T13:28:12Z</time>
      </trkpt>
      <trkpt lat="42.82973" lon="0.30141">
        <ele>1170</ele>
        <time>2017-04-02T13:30:12Z</time>
      </trkpt>
      <trkpt lat="42.82948" lon="0.30055">
        <ele>1169</ele>
        <time>2017-04-02T13:32:12Z</time>
      </trkpt>
      <trkpt lat="42.82912" lon="0.29972">
        <ele>1161</ele>
        <time>2017-04-02T13:34:12Z</time>
      </trkpt>
      <trkpt lat="42.82917" lon="0.30064">
        <ele>1151</ele>
        <time>2017-04-02T13:36:12Z</time>
      </trkpt>
      <trkpt lat="42.82902" lon="0.30148">
        <ele>1137</ele>
        <time>2017-04-02T13:38:12Z</time>
      </trkpt>
      <trkpt lat="42.82902" lon="0.30215">
        <ele>1125</ele>
        <time>2017-04-02T13:40:12Z</time>
      </trkpt>
      <trkpt lat="42.82915" lon="0.30237">
        <ele>1122</ele>
        <time>2017-04-02T13:42:12Z</time>
      </trkpt>
      <trkpt lat="42.82897" lon="0.30292">
        <ele>1110</ele>
        <time>2017-04-02T13:44:12Z</time>
      </trkpt>
      <trkpt lat="42.82883" lon="0.30337">
        <ele>1100</ele>
        <time>2017-04-02T13:46:12Z</time>
      </trkpt>
      <trkpt lat="42.829" lon="0.30379">
        <ele>1099</ele>
        <time>2017-04-02T13:48:12Z</time>
      </trkpt>
      <trkpt lat="42.82884" lon="0.30411">
        <ele>1090</ele>
        <time>2017-04-02T13:50:12Z</time>
      </trkpt>
      <trkpt lat="42.8287" lon="0.30366">
        <ele>1093</ele>
        <time>2017-04-02T13:52:12Z</time>
      </trkpt>
      <trkpt lat="42.82859" lon="0.30308">
        <ele>1101</ele>
        <time>2017-04-02T13:54:12Z</time>
      </trkpt>
      <trkpt lat="42.82842" lon="0.30349">
        <ele>1090</ele>
        <time>2017-04-02T13:56:12Z</time>
      </trkpt>
      <trkpt lat="42.82815" lon="0.30395">
        <ele>1085</ele>
        <time>2017-04-02T13:58:12Z</time>
      </trkpt>
      <trkpt lat="42.82799" lon="0.30431">
        <ele>1081</ele>
        <time>2017-04-02T14:00:12Z</time>
      </trkpt>
      <trkpt lat="42.82801" lon="0.30472">
        <ele>1068</ele>
        <time>2017-04-02T14:02:12Z</time>
      </trkpt>
      <trkpt lat="42.8282" lon="0.30581">
        <ele>1035</ele>
        <time>2017-04-02T14:04:12Z</time>
      </trkpt>
      <trkpt lat="42.82811" lon="0.30645">
        <ele>1026</ele>
        <time>2017-04-02T14:06:12Z</time>
      </trkpt>
      <trkpt lat="42.82808" lon="0.30727">
        <ele>1007</ele>
        <time>2017-04-02T14:08:12Z</time>
      </trkpt>
      <trkpt lat="42.82798" lon="0.30812">
        <ele>991</ele>
        <time>2017-04-02T14:10:12Z</time>
      </trkpt>
      <trkpt lat="42.82783" lon="0.30903">
        <ele>977</ele>
        <time>2017-04-02T14:12:12Z</time>
      </trkpt>
      <trkpt lat="42.82765" lon="0.30984">
        <ele>964</ele>
        <time>2017-04-02T14:14:12Z</time>
      </trkpt>
      <trkpt lat="42.82751" lon="0.31074">
        <ele>939</ele>
        <time>2017-04-02T14:16:12Z</time>
      </trkpt>
      <trkpt lat="42.82751" lon="0.31183">
        <ele>890</ele>
        <time>2017-04-02T14:18:12Z</time>
      </trkpt>
      <trkpt lat="42.82643" lon="0.31243">
        <ele>871</ele>
        <time>2017-04-02T14:20:12Z</time>
      </trkpt>
      <trkpt lat="42.82541" lon="0.31331">
        <ele>835</ele>
        <time>2017-04-02T14:22:12Z</time>
      </trkpt>
      <trkpt lat="42.82618" lon="0.31371">
        <ele>833</ele>
        <time>2017-04-02T14:24:12Z</time>
      </trkpt>
      <trkpt lat="42.82683" lon="0.3137">
        <ele>839</ele>
        <time>2017-04-02T14:26:12Z</time>
      </trkpt>
      <trkpt lat="42.82728" lon="0.31398">
        <ele>844</ele>
        <time>2017-04-02T14:28:12Z</time>
      </trkpt>
      <trkpt lat="42.82681" lon="0.31457">
        <ele>826</ele>
        <time>2017-04-02T14:30:12Z</time>
      </trkpt>
      <trkpt lat="42.82656" lon="0.31513">
        <ele>817</ele>
        <time>2017-04-02T14:32:12Z</time>
      </trkpt>
      <trkpt lat="42.82609" lon="0.31566">
        <ele>813</ele>
        <time>2017-04-02T14:34:12Z</time>
      </trkpt>
      <trkpt lat="42.82554" lon="0.31649">
        <ele>807</ele>
        <time>2017-04-02T14:36:12Z</time>
      </trkpt>
      <trkpt lat="42.82553" lon="0.31762">
        <ele>802</ele>
        <time>2017-04-02T14:38:12Z</time>
      </trkpt>
      <trkpt lat="42.82572" lon="0.31796">
        <ele>801</ele>
        <time>2017-04-02T14:40:12Z</time>
      </trkpt>
      <trkpt lat="42.82553" lon="0.31883">
        <ele>800</ele>
        <time>2017-04-02T14:42:12Z</time>
      </trkpt>
      <trkpt lat="42.82523" lon="0.31982">
        <ele>800</ele>
        <time>2017-04-02T14:44:12Z</time>
      </trkpt>
      <trkpt lat="42.82482" lon="0.32073">
        <ele>800</ele>
        <time>2017-04-02T14:46:12Z</time>
      </trkpt>
      <trkpt lat="42.82441" lon="0.3215">
        <ele>800</ele>
        <time>2017-04-02T14:48:12Z</time>
      </trkpt>
      <trkpt lat="42.824" lon="0.32242">
        <ele>800</ele>
        <time>2017-04-02T14:50:12Z</time>
      </trkpt>
      <trkpt lat="42.82369" lon="0.32301">
        <ele>800</ele>
        <time>2017-04-02T14:52:12Z</time>
      </trkpt>
      <trkpt lat="42.82409" lon="0.3235">
        <ele>800</ele>
        <time>2017-04-02T14:54:12Z</time>
      </trkpt>
      <trkpt lat="42.82458" lon="0.3239">
        <ele>800</ele>
        <time>2017-04-02T14:56:12Z</time>
      </trkpt>
      <trkpt lat="42.82513" lon="0.32436">
        <ele>800</ele>
        <time>2017-04-02T14:58:12Z</time>
      </trkpt>
      <trkpt lat="42.82569" lon="0.32599">
        <ele>799</ele>
        <time>2017-04-02T15:00:12Z</time>
      </trkpt>
      <trkpt lat="42.82614" lon="0.32664">
        <ele>798</ele>
        <time>2017-04-02T15:02:12Z</time>
      </trkpt>
      <trkpt lat="42.82667" lon="0.32698">
        <ele>797</ele>
        <time>2017-04-02T15:04:12Z</time>
      </trkpt>
      <trkpt lat="42.82724" lon="0.32721">
        <ele>796</ele>
        <time>2017-04-02T15:06:12Z</time>
      </trkpt>
      <trkpt lat="42.82794" lon="0.32744">
        <ele>795</ele>
        <time>2017-04-02T15:08:12Z</time>
      </trkpt>
      <trkpt lat="42.82847" lon="0.32787">
        <ele>794</ele>
        <time>2017-04-02T15:10:12Z</time>
      </trkpt>
      <trkpt lat="42.82907" lon="0.3282">
        <ele>793</ele>
        <time>2017-04-02T15:12:12Z</time>
      </trkpt>
      <trkpt lat="42.82959" lon="0.32846">
        <ele>792</ele>
        <time>2017-04-02T15:14:12Z</time>
      </trkpt>
      <trkpt lat="42.82974" lon="0.32791">
        <ele>792</ele>
        <time>2017-04-02T15:16:12Z</time>
      </trkpt>
      <trkpt lat="42.82985" lon="0.32711">
        <ele>793</ele>
        <time>2017-04-02T15:18:12Z</time>
      </trkpt>
    </trkseg>
  </trk>
</gpx>